Time;durP1;ratioP1;P1;durP2;ratioP2;P2;SDS_P1;SDS_P2;PMS_P1;PMS_P2;Temp;Humidity;BMP_temperature;BMP_pressure;BME280_temperature;BME280_humidity;BME280_pressure;Samples;Min_cycle;Max_cycle;Signal;HPM_P1;HPM_P2
2021/07/29 00:00:36;;;;;;;7.50;3.47;;;16.00;99.90;;;;;;5024602;28;20201;-82
2021/07/29 00:03:06;;;;;;;3.37;2.97;;;16.00;99.90;;;;;;5023885;28;20182;-82
2021/07/29 00:05:33;;;;;;;4.47;3.00;;;16.00;99.90;;;;;;5025389;28;20199;-82
2021/07/29 00:07:59;;;;;;;3.80;3.13;;;16.00;99.90;;;;;;5025730;28;20187;-81
2021/07/29 00:10:26;;;;;;;4.60;2.90;;;16.00;99.90;;;;;;5024417;28;20185;-82
2021/07/29 00:12:52;;;;;;;4.53;2.67;;;15.90;99.90;;;;;;5024650;28;20218;-82
2021/07/29 00:15:19;;;;;;;4.13;2.77;;;15.90;99.90;;;;;;5022523;28;20199;-82
2021/07/29 00:20:26;;;;;;;4.20;3.03;;;15.80;99.90;;;;;;5023679;28;20272;-82
2021/07/29 00:22:53;;;;;;;3.80;3.40;;;15.80;99.90;;;;;;5023259;28;20568;-82
2021/07/29 00:25:20;;;;;;;4.90;3.17;;;15.80;99.90;;;;;;5022360;28;20199;-82
2021/07/29 00:27:46;;;;;;;3.50;2.70;;;15.80;99.90;;;;;;5023872;28;20178;-82
2021/07/29 00:30:14;;;;;;;3.23;2.93;;;15.80;99.90;;;;;;5024486;28;20240;-82
2021/07/29 00:32:40;;;;;;;3.63;3.30;;;15.80;99.90;;;;;;5028813;28;20202;-81
2021/07/29 00:35:14;;;;;;;7.50;3.17;;;15.80;99.90;;;;;;5021253;28;20218;-81
2021/07/29 00:37:41;;;;;;;4.57;3.17;;;15.80;99.90;;;;;;5022704;28;20534;-82
2021/07/29 00:40:07;;;;;;;3.43;2.97;;;15.80;99.90;;;;;;5023528;28;20190;-82
2021/07/29 00:42:33;;;;;;;3.67;3.27;;;15.80;99.90;;;;;;5021288;28;20250;-81
2021/07/29 00:44:59;;;;;;;3.67;2.93;;;15.80;99.90;;;;;;5023486;28;20249;-82
2021/07/29 00:47:25;;;;;;;4.37;3.37;;;15.80;99.90;;;;;;5022845;28;20519;-82
2021/07/29 00:49:50;;;;;;;3.70;3.00;;;15.80;99.90;;;;;;5029574;28;20167;-81
2021/07/29 00:52:20;;;;;;;4.73;3.50;;;15.80;99.90;;;;;;5032850;28;20302;-80
2021/07/29 00:54:46;;;;;;;3.27;2.87;;;15.80;99.90;;;;;;5034748;28;20234;-81
2021/07/29 00:57:13;;;;;;;4.27;3.20;;;15.80;99.90;;;;;;5022843;28;20171;-82
2021/07/29 00:59:39;;;;;;;5.33;2.90;;;15.80;99.90;;;;;;5021087;28;20167;-82
2021/07/29 01:02:05;;;;;;;3.77;3.10;;;15.70;99.90;;;;;;5019719;28;20179;-82
2021/07/29 01:04:31;;;;;;;4.43;3.30;;;15.70;99.90;;;;;;5018279;28;20571;-81
2021/07/29 01:06:57;;;;;;;3.20;2.90;;;15.70;99.90;;;;;;5020972;28;20261;-82
2021/07/29 01:09:23;;;;;;;4.97;3.30;;;15.60;99.90;;;;;;5021573;28;20635;-82
2021/07/29 01:11:49;;;;;;;5.20;3.90;;;15.70;99.90;;;;;;5019031;28;20183;-82
2021/07/29 01:14:15;;;;;;;5.37;3.60;;;15.60;99.90;;;;;;5018754;28;20550;-82
2021/07/29 01:16:41;;;;;;;4.97;3.40;;;15.60;99.90;;;;;;5019747;28;20179;-82
2021/07/29 01:19:08;;;;;;;6.33;3.40;;;15.60;99.90;;;;;;5020691;28;20182;-82
2021/07/29 01:21:35;;;;;;;3.47;3.00;;;15.60;99.90;;;;;;5024413;28;20171;-81
2021/07/29 01:24:01;;;;;;;5.73;2.87;;;15.60;99.90;;;;;;5024690;28;20191;-82
2021/07/29 01:26:27;;;;;;;5.23;3.10;;;15.60;99.90;;;;;;5023691;28;20179;-82
2021/07/29 01:28:54;;;;;;;3.77;3.07;;;15.50;99.90;;;;;;5023140;28;20186;-82
2021/07/29 01:31:20;;;;;;;4.00;3.23;;;15.50;99.90;;;;;;5024592;28;20183;-81
2021/07/29 01:33:46;;;;;;;4.13;3.20;;;15.50;99.90;;;;;;5022921;28;20211;-82
2021/07/29 01:36:11;;;;;;;9.63;3.43;;;15.40;99.90;;;;;;5022796;28;20621;-82
2021/07/29 01:38:37;;;;;;;3.93;3.37;;;15.40;99.90;;;;;;5025105;28;20202;-82
2021/07/29 01:41:03;;;;;;;4.27;3.10;;;15.50;99.90;;;;;;5024877;28;20201;-82
2021/07/29 01:43:30;;;;;;;4.23;3.10;;;15.50;99.90;;;;;;5023380;28;20186;-83
2021/07/29 01:45:56;;;;;;;3.27;2.97;;;15.40;99.90;;;;;;5025125;28;20193;-82
2021/07/29 01:48:22;;;;;;;4.43;3.00;;;15.50;99.90;;;;;;5023377;28;20203;-82
2021/07/29 01:50:48;;;;;;;5.13;3.10;;;15.40;99.90;;;;;;5023390;28;20185;-82
2021/07/29 01:53:13;;;;;;;4.10;3.20;;;15.40;99.90;;;;;;5025130;28;20230;-82
2021/07/29 01:55:43;;;;;;;4.87;2.73;;;15.50;99.90;;;;;;5025441;28;20195;-82
2021/07/29 01:58:09;;;;;;;5.90;2.73;;;15.40;99.90;;;;;;5025936;28;20167;-82
2021/07/29 02:00:37;;;;;;;3.87;2.70;;;15.40;99.90;;;;;;5031643;28;20179;-81
2021/07/29 02:03:03;;;;;;;3.00;2.53;;;15.40;99.90;;;;;;5037737;28;20179;-81
2021/07/29 02:05:30;;;;;;;3.30;3.00;;;15.40;99.90;;;;;;5032171;28;20277;-82
2021/07/29 02:07:56;;;;;;;4.37;3.27;;;15.40;99.90;;;;;;5023808;28;20182;-82
2021/07/29 02:10:22;;;;;;;3.73;2.80;;;15.40;99.90;;;;;;5025553;28;20183;-82
2021/07/29 02:12:48;;;;;;;3.63;2.87;;;15.40;99.90;;;;;;5024469;28;20576;-82
2021/07/29 02:15:14;;;;;;;5.37;3.17;;;15.40;99.90;;;;;;5024656;28;20257;-82
2021/07/29 02:17:40;;;;;;;4.53;2.93;;;15.30;99.90;;;;;;5026239;28;20175;-82
2021/07/29 02:20:06;;;;;;;5.40;3.40;;;15.30;99.90;;;;;;5025090;28;20282;-82
2021/07/29 02:22:32;;;;;;;3.63;3.10;;;15.30;99.90;;;;;;5026218;28;20187;-82
2021/07/29 02:24:58;;;;;;;6.00;3.47;;;15.30;99.90;;;;;;5026682;28;20207;-82
2021/07/29 02:27:24;;;;;;;7.90;3.23;;;15.40;99.90;;;;;;5026773;28;20186;-81
2021/07/29 02:29:53;;;;;;;4.60;3.20;;;15.40;99.90;;;;;;5028552;28;20179;-82
2021/07/29 02:32:20;;;;;;;2.97;2.67;;;15.30;99.90;;;;;;5023351;28;20614;-81
2021/07/29 02:34:46;;;;;;;3.77;2.87;;;15.30;99.90;;;;;;5023576;28;20277;-81
2021/07/29 02:37:12;;;;;;;6.87;2.97;;;15.30;99.90;;;;;;5022116;28;20258;-82
2021/07/29 02:39:40;;;;;;;3.50;3.03;;;15.30;99.90;;;;;;5022595;28;20265;-81
2021/07/29 02:42:08;;;;;;;3.30;2.60;;;15.30;99.90;;;;;;5022877;28;20214;-82
2021/07/29 02:44:34;;;;;;;4.60;3.10;;;15.20;99.90;;;;;;5023055;28;20580;-82
2021/07/29 02:47:00;;;;;;;4.60;2.80;;;15.20;99.90;;;;;;5022461;28;20187;-81
2021/07/29 02:49:26;;;;;;;3.27;2.50;;;15.20;99.90;;;;;;5023804;28;20182;-81
2021/07/29 02:51:52;;;;;;;3.53;2.97;;;15.20;99.90;;;;;;5023733;28;20239;-81
2021/07/29 02:54:18;;;;;;;5.33;2.70;;;15.20;99.90;;;;;;5024448;28;20723;-81
2021/07/29 02:56:43;;;;;;;3.00;2.60;;;15.10;99.90;;;;;;5024539;28;20167;-81
2021/07/29 02:59:09;;;;;;;7.43;3.37;;;15.10;99.90;;;;;;5024659;28;20171;-81
2021/07/29 03:01:35;;;;;;;4.07;3.00;;;15.00;99.90;;;;;;5023492;28;20182;-82
2021/07/29 03:04:00;;;;;;;4.90;2.83;;;15.00;99.90;;;;;;5025019;28;20259;-82
2021/07/29 03:06:26;;;;;;;3.77;3.30;;;15.00;99.90;;;;;;5025956;28;20171;-82
2021/07/29 03:08:52;;;;;;;6.20;3.27;;;15.00;99.90;;;;;;5026154;28;20562;-82
2021/07/29 03:11:18;;;;;;;3.80;2.70;;;15.00;99.90;;;;;;5025033;28;20182;-82
2021/07/29 03:13:43;;;;;;;5.50;3.17;;;15.10;99.90;;;;;;5024641;28;20221;-82
2021/07/29 03:16:09;;;;;;;3.80;3.20;;;15.10;99.90;;;;;;5026606;28;20171;-82
2021/07/29 03:18:35;;;;;;;3.00;2.70;;;15.00;99.90;;;;;;5027354;28;20239;-82
2021/07/29 03:21:00;;;;;;;3.20;2.90;;;15.00;99.90;;;;;;5027975;28;20222;-82
2021/07/29 03:23:27;;;;;;;3.57;3.10;;;15.00;99.90;;;;;;5025210;28;20186;-81
2021/07/29 03:25:54;;;;;;;4.00;2.60;;;15.00;99.90;;;;;;5021873;28;20179;-81
2021/07/29 03:28:20;;;;;;;3.37;2.60;;;15.00;99.90;;;;;;5021877;28;20549;-81
2021/07/29 03:30:46;;;;;;;3.77;2.93;;;14.90;99.90;;;;;;5022669;28;20190;-81
2021/07/29 03:33:13;;;;;;;5.60;2.80;;;14.90;99.90;;;;;;5022502;28;20269;-81
2021/07/29 03:35:42;;;;;;;6.57;2.50;;;14.90;99.90;;;;;;5021609;28;20560;-82
2021/07/29 03:38:08;;;;;;;2.97;2.60;;;15.00;99.90;;;;;;5022767;28;20178;-82
2021/07/29 03:40:36;;;;;;;3.77;2.57;;;15.00;99.90;;;;;;5021518;28;20191;-81
2021/07/29 03:43:03;;;;;;;3.30;2.97;;;14.90;99.90;;;;;;5022326;28;20163;-81
2021/07/29 03:45:29;;;;;;;3.43;2.87;;;15.00;99.90;;;;;;5022335;28;20214;-81
2021/07/29 03:47:55;;;;;;;6.47;2.73;;;15.00;99.90;;;;;;5021662;28;20183;-81
2021/07/29 03:50:21;;;;;;;3.40;2.60;;;15.00;99.90;;;;;;5021838;28;20186;-81
2021/07/29 03:52:47;;;;;;;2.60;2.40;;;15.00;99.90;;;;;;5022730;28;20207;-81
2021/07/29 03:55:13;;;;;;;2.97;2.50;;;15.00;99.90;;;;;;5020993;28;20210;-81
2021/07/29 03:57:39;;;;;;;5.23;2.30;;;;;;;;;;5020566;28;20179;-82
2021/07/29 04:00:05;;;;;;;2.93;2.57;;;14.90;99.90;;;;;;5021251;28;20186;-82
2021/07/29 04:02:31;;;;;;;3.80;2.60;;;15.00;99.90;;;;;;5021222;28;20190;-81
2021/07/29 04:04:57;;;;;;;4.50;3.13;;;14.90;99.90;;;;;;5020887;28;20590;-82
2021/07/29 04:07:23;;;;;;;4.13;2.83;;;14.90;99.90;;;;;;5022184;28;20233;-82
2021/07/29 04:09:50;;;;;;;3.63;2.60;;;14.90;99.90;;;;;;5021399;28;20229;-82
2021/07/29 04:12:16;;;;;;;4.33;2.90;;;14.90;99.90;;;;;;5022532;28;20194;-81
2021/07/29 04:14:42;;;;;;;3.10;2.80;;;14.90;99.90;;;;;;5022857;28;20214;-81
2021/07/29 04:17:08;;;;;;;4.00;2.63;;;14.90;99.90;;;;;;5023280;28;20178;-81
2021/07/29 04:19:34;;;;;;;3.40;3.00;;;14.90;99.90;;;;;;5023451;28;20201;-82
2021/07/29 04:22:01;;;;;;;4.23;2.50;;;14.90;99.90;;;;;;5023936;28;20553;-82
2021/07/29 04:24:28;;;;;;;4.40;2.60;;;14.90;99.90;;;;;;5022858;28;20194;-82
2021/07/29 04:26:55;;;;;;;3.43;2.70;;;14.90;99.90;;;;;;5024333;28;20171;-82
2021/07/29 04:29:21;;;;;;;4.13;3.07;;;14.90;99.90;;;;;;5022908;28;20242;-82
2021/07/29 04:31:47;;;;;;;3.73;3.00;;;14.90;99.90;;;;;;5024171;28;20636;-82
2021/07/29 04:34:13;;;;;;;4.40;2.80;;;14.80;99.90;;;;;;5024080;28;20214;-82
2021/07/29 04:36:40;;;;;;;3.47;2.60;;;14.80;99.90;;;;;;5023507;28;20185;-82
2021/07/29 04:39:06;;;;;;;4.40;2.80;;;14.80;99.90;;;;;;5024189;28;20206;-82
2021/07/29 04:41:33;;;;;;;4.50;3.00;;;14.80;99.90;;;;;;5024129;28;20175;-82
2021/07/29 04:43:59;;;;;;;4.10;2.90;;;14.80;99.90;;;;;;5024749;28;20222;-82
2021/07/29 04:46:25;;;;;;;3.40;3.00;;;14.80;99.90;;;;;;5026191;28;20179;-82
2021/07/29 04:48:51;;;;;;;6.23;2.87;;;14.80;99.90;;;;;;5025046;28;20183;-82
2021/07/29 04:51:17;;;;;;;5.17;2.53;;;;;;;;;;5022684;28;20194;-83
2021/07/29 04:53:42;;;;;;;3.97;2.90;;;14.80;99.90;;;;;;5021842;28;20706;-82
2021/07/29 04:56:08;;;;;;;3.90;3.03;;;14.90;99.90;;;;;;5024794;28;20179;-82
2021/07/29 04:58:33;;;;;;;3.40;2.73;;;14.90;99.90;;;;;;5031825;28;20244;-82
2021/07/29 05:01:04;;;;;;;4.17;2.70;;;15.00;99.90;;;;;;5031755;28;20270;-82
2021/07/29 05:03:30;;;;;;;5.07;3.10;;;15.00;99.90;;;;;;5030104;28;20179;-82
2021/07/29 05:05:55;;;;;;;5.37;3.57;;;15.00;99.90;;;;;;5027601;28;20205;-81
2021/07/29 05:08:21;;;;;;;6.07;3.17;;;;;;;;;;5024822;28;20209;-81
2021/07/29 05:10:47;;;;;;;3.87;3.00;;;;;;;;;;5024572;28;20302;-81
2021/07/29 05:13:13;;;;;;;4.37;3.10;;;15.10;99.90;;;;;;5025287;28;20206;-81
2021/07/29 05:15:38;;;;;;;3.63;2.80;;;15.10;99.90;;;;;;5026838;28;20194;-81
2021/07/29 05:18:04;;;;;;;3.10;2.80;;;;;;;;;;5026097;28;20648;-81
2021/07/29 05:20:30;;;;;;;3.50;2.87;;;15.20;99.90;;;;;;5026589;28;20171;-82
2021/07/29 05:22:56;;;;;;;3.20;2.30;;;15.20;99.90;;;;;;5020867;28;20194;-83
2021/07/29 05:25:24;;;;;;;3.50;2.90;;;15.10;99.90;;;;;;5022855;28;20199;-82
2021/07/29 05:27:51;;;;;;;3.60;3.10;;;15.20;99.90;;;;;;5020830;28;20186;-82
2021/07/29 05:30:19;;;;;;;2.90;2.30;;;15.20;99.90;;;;;;5023529;28;20175;-82
2021/07/29 05:32:45;;;;;;;3.37;2.57;;;15.20;99.90;;;;;;5023340;28;20222;-82
2021/07/29 05:35:11;;;;;;;4.60;3.30;;;15.30;99.90;;;;;;5022277;28;20226;-82
2021/07/29 05:37:37;;;;;;;5.13;2.70;;;15.30;99.90;;;;;;5022113;28;20179;-82
2021/07/29 05:40:07;;;;;;;4.70;3.00;;;15.40;99.90;;;;;;5024331;28;20171;-82
2021/07/29 05:42:33;;;;;;;5.43;2.47;;;15.50;99.90;;;;;;5025864;28;20187;-82
2021/07/29 05:45:00;;;;;;;3.47;3.13;;;15.60;99.90;;;;;;5040898;28;20276;-82
2021/07/29 05:47:26;;;;;;;4.33;3.07;;;15.70;99.90;;;;;;5023853;28;20186;-82
2021/07/29 05:49:51;;;;;;;4.83;2.90;;;15.90;99.90;;;;;;5024453;28;20206;-82
2021/07/29 05:52:17;;;;;;;2.90;2.70;;;16.00;99.90;;;;;;5027590;28;20332;-81
2021/07/29 05:54:43;;;;;;;6.17;3.20;;;16.10;99.90;;;;;;5041144;28;20195;-82
2021/07/29 05:57:09;;;;;;;4.53;3.27;;;;;;;;;;5044087;28;20181;-81
2021/07/29 05:59:34;;;;;;;5.87;3.93;;;16.20;99.90;;;;;;5024454;28;20633;-82
2021/07/29 06:02:00;;;;;;;6.93;3.40;;;16.20;99.90;;;;;;5023890;28;20201;-82
2021/07/29 06:04:26;;;;;;;3.97;3.00;;;;;;;;;;5025743;28;20216;-81
2021/07/29 06:06:52;;;;;;;5.20;2.73;;;16.10;99.90;;;;;;5023644;28;20178;-81
2021/07/29 06:09:17;;;;;;;6.50;3.00;;;;;;;;;;5023578;28;20187;-81
2021/07/29 06:11:43;;;;;;;4.77;3.30;;;16.20;99.90;;;;;;5023666;28;20189;-81
2021/07/29 06:14:09;;;;;;;3.73;2.60;;;16.30;99.90;;;;;;5024571;28;20206;-81
2021/07/29 06:16:34;;;;;;;6.63;2.80;;;16.30;99.90;;;;;;5024489;28;20579;-82
2021/07/29 06:21:32;;;;;;;4.10;2.90;;;16.50;99.90;;;;;;5025320;28;20198;-81
2021/07/29 06:23:58;;;;;;;2.90;2.60;;;16.70;99.90;;;;;;5024208;28;20207;-82
2021/07/29 06:26:24;;;;;;;3.50;2.63;;;16.70;99.90;;;;;;5025364;28;20698;-81
2021/07/29 06:28:50;;;;;;;4.50;2.97;;;16.80;99.90;;;;;;5025009;28;20206;-82
2021/07/29 06:31:16;;;;;;;4.77;3.10;;;16.80;99.90;;;;;;5025765;28;20178;-82
2021/07/29 06:33:42;;;;;;;4.87;2.80;;;16.80;99.90;;;;;;5023996;28;20228;-81
2021/07/29 06:36:07;;;;;;;6.00;3.20;;;16.90;99.90;;;;;;5024792;28;20636;-81
2021/07/29 06:38:33;;;;;;;4.40;3.17;;;16.90;99.90;;;;;;5026260;28;20175;-81
2021/07/29 06:40:59;;;;;;;3.33;2.90;;;17.00;99.90;;;;;;5026520;28;20175;-82
2021/07/29 06:43:25;;;;;;;4.43;3.33;;;17.20;99.90;;;;;;5025721;28;20187;-82
2021/07/29 06:45:51;;;;;;;3.27;2.80;;;17.20;99.90;;;;;;5026069;28;20199;-82
2021/07/29 06:48:17;;;;;;;3.93;3.10;;;17.30;99.90;;;;;;5026140;28;20586;-82
2021/07/29 06:50:46;;;;;;;3.77;3.37;;;17.50;99.90;;;;;;5026262;28;20213;-82
2021/07/29 06:53:14;;;;;;;3.70;3.10;;;17.60;99.90;;;;;;5026965;28;20203;-82
2021/07/29 06:55:40;;;;;;;4.20;3.33;;;17.70;99.90;;;;;;5029135;28;20206;-82
2021/07/29 06:58:05;;;;;;;6.37;3.17;;;17.80;99.90;;;;;;5028675;28;20176;-82
2021/07/29 07:00:31;;;;;;;6.90;2.80;;;17.90;99.90;;;;;;5028293;28;20183;-82
2021/07/29 07:02:56;;;;;;;3.40;2.70;;;17.90;99.90;;;;;;5045412;28;20216;-82
2021/07/29 07:05:22;;;;;;;3.50;3.10;;;18.00;99.90;;;;;;5030474;28;20193;-82
2021/07/29 07:07:48;;;;;;;4.43;3.10;;;18.10;99.90;;;;;;5029864;28;20179;-82
2021/07/29 07:10:13;;;;;;;5.07;3.27;;;18.20;99.90;;;;;;5029855;28;20190;-82
2021/07/29 07:12:39;;;;;;;4.20;3.20;;;18.30;99.90;;;;;;5022723;28;20294;-81
2021/07/29 07:15:05;;;;;;;4.13;2.80;;;18.30;99.90;;;;;;5023486;28;20238;-81
2021/07/29 07:17:31;;;;;;;6.07;3.37;;;18.40;99.90;;;;;;5022367;28;20528;-81
2021/07/29 07:20:00;;;;;;;3.30;2.80;;;18.50;99.90;;;;;;5022809;28;20418;-81
2021/07/29 07:22:26;;;;;;;5.13;3.27;;;18.50;99.90;;;;;;5024733;28;20189;-81
2021/07/29 07:24:52;;;;;;;5.17;3.53;;;18.60;99.90;;;;;;5023460;28;20200;-81
2021/07/29 07:27:18;;;;;;;3.37;2.77;;;18.70;99.90;;;;;;5023496;28;20196;-81
2021/07/29 07:29:44;;;;;;;4.13;2.50;;;18.70;99.90;;;;;;5025444;28;20271;-82
2021/07/29 07:32:10;;;;;;;3.83;2.63;;;18.70;99.90;;;;;;5023320;28;20183;-82
2021/07/29 07:34:35;;;;;;;4.50;2.70;;;18.70;99.90;;;;;;5025558;28;20223;-81
2021/07/29 07:37:01;;;;;;;3.93;2.70;;;18.70;99.90;;;;;;5025670;28;20224;-82
2021/07/29 07:39:27;;;;;;;4.40;2.80;;;18.70;99.90;;;;;;5024598;28;20227;-81
2021/07/29 07:41:55;;;;;;;3.20;2.63;;;18.70;99.90;;;;;;5026242;28;20184;-82
2021/07/29 07:44:21;;;;;;;3.37;2.57;;;18.80;99.90;;;;;;5025942;28;20214;-82
2021/07/29 07:46:47;;;;;;;4.77;3.57;;;18.80;99.90;;;;;;5028104;28;20212;-81
2021/07/29 07:49:13;;;;;;;4.27;3.07;;;18.90;99.90;;;;;;5031782;28;20263;-82
2021/07/29 07:51:40;;;;;;;3.43;2.20;;;19.00;99.90;;;;;;5030933;28;20194;-82
2021/07/29 07:54:07;;;;;;;4.97;2.50;;;19.10;99.90;;;;;;5020806;28;20216;-82
2021/07/29 07:56:33;;;;;;;3.70;3.07;;;19.20;99.90;;;;;;5021540;28;20181;-82
2021/07/29 07:58:58;;;;;;;7.10;3.20;;;19.40;99.90;;;;;;5022648;28;20174;-81
2021/07/29 08:01:24;;;;;;;3.57;2.90;;;19.60;99.90;;;;;;5020602;28;20180;-81
2021/07/29 08:03:50;;;;;;;3.07;2.67;;;19.70;99.90;;;;;;5021935;28;20200;-81
2021/07/29 08:06:15;;;;;;;3.33;2.77;;;19.80;99.90;;;;;;5037225;28;20184;-82
2021/07/29 08:08:42;;;;;;;3.37;2.90;;;19.80;99.90;;;;;;5021925;28;20182;-82
2021/07/29 08:11:08;;;;;;;4.03;2.90;;;19.90;99.90;;;;;;5036754;28;20178;-82
2021/07/29 08:13:34;;;;;;;2.80;2.40;;;20.00;99.90;;;;;;5021019;28;20300;-82
2021/07/29 08:16:00;;;;;;;3.30;2.60;;;20.10;99.90;;;;;;5022407;28;20181;-81
2021/07/29 08:18:27;;;;;;;2.97;2.50;;;20.20;99.90;;;;;;5021189;28;20228;-81
2021/07/29 08:20:53;;;;;;;3.47;3.03;;;20.30;99.90;;;;;;5021774;28;20178;-81
2021/07/29 08:23:18;;;;;;;3.40;2.70;;;20.40;99.90;;;;;;5021448;28;20183;-81
2021/07/29 08:25:44;;;;;;;2.90;2.60;;;20.50;99.90;;;;;;5022406;28;20257;-82
2021/07/29 08:28:11;;;;;;;2.53;2.33;;;20.60;99.90;;;;;;5023287;28;20179;-81
2021/07/29 08:30:36;;;;;;;4.23;3.10;;;20.70;99.90;;;;;;5016598;28;20182;-81
2021/07/29 08:33:10;;;;;;;3.80;2.80;;;20.90;99.90;;;;;;5017934;28;20206;-81
2021/07/29 08:35:37;;;;;;;2.60;2.40;;;21.00;99.90;;;;;;5020614;28;20201;-81
2021/07/29 08:38:03;;;;;;;2.67;2.47;;;21.00;99.90;;;;;;5020902;28;20179;-81
2021/07/29 08:40:29;;;;;;;3.07;2.77;;;21.00;99.90;;;;;;5022589;28;20164;-81
2021/07/29 08:42:56;;;;;;;2.70;2.47;;;21.00;99.90;;;;;;5020888;28;20178;-81
2021/07/29 08:45:21;;;;;;;2.70;2.40;;;21.00;99.90;;;;;;5020586;28;20222;-81
2021/07/29 08:47:55;;;;;;;2.57;2.30;;;21.00;99.90;;;;;;5037666;28;20183;-81
2021/07/29 08:50:21;;;;;;;3.20;2.70;;;21.00;99.90;;;;;;5021960;28;20171;-81
2021/07/29 08:52:49;;;;;;;3.83;2.37;;;21.10;99.90;;;;;;5021901;28;20207;-81
2021/07/29 08:55:15;;;;;;;3.30;2.60;;;21.20;99.90;;;;;;5023246;28;20190;-81
2021/07/29 08:57:42;;;;;;;2.67;2.47;;;21.20;99.90;;;;;;5024125;28;20640;-81
2021/07/29 09:00:10;;;;;;;4.37;2.93;;;21.30;99.90;;;;;;5022189;28;20180;-81
2021/07/29 09:02:36;;;;;;;3.93;3.00;;;21.20;99.90;;;;;;5024366;28;20576;-81
2021/07/29 09:05:16;;;;;;;3.17;2.87;;;21.10;99.90;;;;;;5022828;28;20206;-81
2021/07/29 09:08:01;;;;;;;4.80;2.77;;;21.20;99.90;;;;;;5023683;28;20273;-82
2021/07/29 09:10:27;;;;;;;5.80;2.83;;;21.20;99.90;;;;;;5025928;28;20171;-82
2021/07/29 09:13:12;;;;;;;2.90;2.60;;;21.30;99.90;;;;;;5024915;28;20209;-82
2021/07/29 09:15:39;;;;;;;3.00;2.70;;;21.70;99.90;;;;;;5024533;28;20204;-82
2021/07/29 09:18:06;;;;;;;3.43;2.57;;;22.10;99.90;;;;;;5025314;28;20202;-82
2021/07/29 09:20:32;;;;;;;4.37;2.83;;;22.20;99.90;;;;;;5025869;28;20179;-82
2021/07/29 09:23:22;;;;;;;3.87;2.53;;;22.00;99.90;;;;;;5027749;28;20175;-82
2021/07/29 09:26:01;;;;;;;3.73;2.80;;;21.70;99.90;;;;;;5026210;28;20171;-82
2021/07/29 09:28:37;;;;;;;4.27;3.00;;;21.70;99.90;;;;;;5025662;28;20171;-81
2021/07/29 09:31:20;;;;;;;3.03;2.73;;;21.50;99.90;;;;;;5019468;28;20179;-81
2021/07/29 09:33:56;;;;;;;3.47;2.80;;;21.80;99.90;;;;;;5018752;28;20235;-81
2021/07/29 09:36:21;;;;;;;3.40;3.10;;;22.30;99.90;;;;;;5020429;28;20171;-81
2021/07/29 09:38:47;;;;;;;3.93;2.93;;;22.30;99.90;;;;;;5019856;28;20190;-81
2021/07/29 09:41:24;;;;;;;3.90;3.10;;;22.10;99.90;;;;;;5022532;28;20167;-81
2021/07/29 09:43:51;;;;;;;4.30;2.97;;;22.20;99.90;;;;;;5023496;28;20206;-81
2021/07/29 09:46:20;;;;;;;3.50;2.80;;;22.30;99.90;;;;;;5023477;28;20198;-81
2021/07/29 09:48:46;;;;;;;6.40;2.70;;;22.30;99.90;;;;;;5026282;28;20506;-81
2021/07/29 09:51:14;;;;;;;3.40;3.10;;;22.50;99.90;;;;;;5024404;28;20187;-81
2021/07/29 09:53:41;;;;;;;4.93;3.10;;;22.50;99.90;;;;;;5025495;28;20217;-81
2021/07/29 09:56:08;;;;;;;5.20;3.10;;;22.60;99.90;;;;;;5024493;28;20179;-82
2021/07/29 09:58:40;;;;;;;3.53;3.10;;;22.90;99.90;;;;;;5024797;28;20170;-82
2021/07/29 10:01:07;;;;;;;3.53;3.23;;;23.10;99.90;;;;;;5025002;28;20178;-82
2021/07/29 10:03:34;;;;;;;5.03;2.90;;;23.30;99.90;;;;;;5024967;28;20210;-81
2021/07/29 10:06:12;;;;;;;4.90;3.07;;;23.60;99.90;;;;;;5025481;28;20174;-81
2021/07/29 10:09:00;;;;;;;4.30;3.00;;;23.80;99.90;;;;;;5024436;28;20178;-82
2021/07/29 10:11:29;;;;;;;3.23;2.63;;;23.90;99.90;;;;;;5025471;28;20179;-82
2021/07/29 10:13:55;;;;;;;3.33;2.73;;;24.20;99.90;;;;;;5025152;28;20211;-82
2021/07/29 10:16:52;;;;;;;6.30;3.03;;;24.30;99.90;;;;;;5024783;28;20174;-81
2021/07/29 10:19:18;;;;;;;3.80;3.00;;;24.50;99.90;;;;;;5040507;28;20644;-81
2021/07/29 10:21:44;;;;;;;3.37;3.07;;;24.40;99.90;;;;;;5020810;28;20175;-81
2021/07/29 10:24:12;;;;;;;2.77;2.40;;;24.10;99.90;;;;;;5024727;28;20286;-82
2021/07/29 10:27:01;;;;;;;5.47;3.17;;;23.70;99.90;;;;;;5017677;28;20263;-81
2021/07/29 10:29:28;;;;;;;3.23;2.67;;;23.40;99.90;;;;;;5024211;28;20657;-81
2021/07/29 10:31:55;;;;;;;3.40;2.67;;;23.80;99.90;;;;;;5009271;28;20180;-82
2021/07/29 10:34:29;;;;;;;3.50;2.93;;;24.10;99.90;;;;;;5023467;28;20240;-82
2021/07/29 10:36:56;;;;;;;4.67;2.87;;;24.40;99.90;;;;;;5031927;28;20178;-81
2021/07/29 10:39:23;;;;;;;3.40;2.93;;;24.20;99.90;;;;;;5032650;28;20189;-81
2021/07/29 10:41:51;;;;;;;3.57;2.90;;;24.00;99.90;;;;;;5007743;28;20176;-82
2021/07/29 10:44:32;;;;;;;3.73;2.93;;;23.60;99.90;;;;;;5005563;28;20213;-80
2021/07/29 10:46:58;;;;;;;2.93;2.63;;;23.20;99.90;;;;;;5006469;28;20217;-80
2021/07/29 10:49:53;;;;;;;3.03;2.73;;;23.20;99.90;;;;;;5006172;28;20188;-80
2021/07/29 10:52:19;;;;;;;3.77;3.37;;;23.70;99.90;;;;;;5005462;28;20175;-80
2021/07/29 10:54:45;;;;;;;3.23;2.93;;;24.10;99.90;;;;;;5020801;28;20243;-80
2021/07/29 10:57:13;;;;;;;3.40;2.97;;;24.20;99.90;;;;;;5020628;28;20220;-79
2021/07/29 10:59:39;;;;;;;3.13;2.83;;;24.60;99.90;;;;;;5020623;28;20185;-80
2021/07/29 11:02:09;;;;;;;3.67;2.70;;;25.10;99.90;;;;;;5017017;28;20177;-79
2021/07/29 11:04:55;;;;;;;3.40;3.10;;;25.50;99.90;;;;;;5018637;28;20206;-80
2021/07/29 11:07:21;;;;;;;5.80;3.00;;;25.30;99.90;;;;;;5007628;28;20236;-81
2021/07/29 11:09:47;;;;;;;3.97;2.80;;;25.60;99.90;;;;;;5022111;28;20179;-80
2021/07/29 11:12:15;;;;;;;3.23;2.77;;;25.80;99.90;;;;;;5006834;28;20234;-80
2021/07/29 11:14:41;;;;;;;3.50;2.93;;;26.00;99.90;;;;;;5021576;28;20608;-81
2021/07/29 11:17:07;;;;;;;2.97;2.37;;;26.30;99.90;;;;;;5005227;28;20183;-80
2021/07/29 11:19:44;;;;;;;3.43;3.13;;;26.50;99.90;;;;;;5018201;28;20534;-80
2021/07/29 11:22:11;;;;;;;2.87;2.57;;;26.60;99.90;;;;;;5018371;28;20201;-80
2021/07/29 11:24:36;;;;;;;3.17;2.70;;;26.60;99.90;;;;;;5018651;28;20727;-80
2021/07/29 11:27:07;;;;;;;3.37;3.07;;;26.60;99.90;;;;;;5004040;28;20179;-81
2021/07/29 11:29:33;;;;;;;3.10;2.80;;;26.60;99.90;;;;;;5019534;28;20183;-80
2021/07/29 11:31:59;;;;;;;3.33;3.03;;;26.90;99.90;;;;;;5004624;28;20191;-80
2021/07/29 11:34:34;;;;;;;3.67;3.10;;;26.60;99.90;;;;;;5019484;28;20216;-79
2021/07/29 11:37:01;;;;;;;3.20;2.90;;;26.60;99.90;;;;;;5004543;28;20182;-80
2021/07/29 11:39:42;;;;;;;5.10;3.73;;;26.20;99.90;;;;;;5002904;28;20214;-79
2021/07/29 11:42:08;;;;;;;4.30;3.10;;;25.60;99.90;;;;;;5018850;28;20169;-79
2021/07/29 11:44:49;;;;;;;4.53;3.10;;;25.30;99.90;;;;;;5001968;28;20698;-80
2021/07/29 11:47:15;;;;;;;4.00;2.87;;;25.30;99.90;;;;;;5017004;28;20183;-80
2021/07/29 11:49:49;;;;;;;4.20;3.10;;;25.10;99.90;;;;;;5002349;28;20647;-79
2021/07/29 11:52:15;;;;;;;6.57;3.20;;;25.50;99.90;;;;;;5001645;28;20156;-81
2021/07/29 11:54:41;;;;;;;4.10;2.70;;;25.90;99.90;;;;;;5018320;28;20197;-80
2021/07/29 11:57:08;;;;;;;3.30;3.00;;;26.40;99.90;;;;;;5003366;28;20172;-79
2021/07/29 11:59:35;;;;;;;3.30;3.00;;;27.10;99.90;;;;;;5002591;28;20196;-79
2021/07/29 12:02:03;;;;;;;3.50;2.60;;;27.70;99.90;;;;;;5001447;28;20176;-80
2021/07/29 12:04:32;;;;;;;3.73;3.10;;;28.30;99.90;;;;;;5001907;28;20207;-81
2021/07/29 12:07:02;;;;;;;2.83;2.63;;;28.30;99.90;;;;;;5006006;28;20181;-81
2021/07/29 12:09:28;;;;;;;3.60;3.20;;;27.00;99.90;;;;;;5005265;28;20261;-81
2021/07/29 12:11:55;;;;;;;4.23;2.97;;;25.90;99.90;;;;;;5003480;28;20172;-79
2021/07/29 12:14:22;;;;;;;5.43;3.10;;;25.30;99.90;;;;;;5001717;28;20615;-80
2021/07/29 12:16:52;;;;;;;5.03;3.33;;;26.10;99.90;;;;;;5016286;28;20536;-80
2021/07/29 12:19:19;;;;;;;5.53;3.20;;;27.00;99.90;;;;;;5002863;28;20268;-80
2021/07/29 12:21:46;;;;;;;3.67;2.90;;;27.80;99.90;;;;;;5004252;28;20178;-80
2021/07/29 12:24:13;;;;;;;3.77;3.00;;;28.50;99.90;;;;;;5003407;28;20259;-81
2021/07/29 12:26:39;;;;;;;3.37;3.07;;;28.90;99.90;;;;;;5004221;28;20187;-80
2021/07/29 12:29:05;;;;;;;2.93;2.57;;;28.30;99.90;;;;;;5004883;28;20240;-81
2021/07/29 12:31:32;;;;;;;6.00;3.20;;;27.70;99.90;;;;;;5004905;28;20654;-80
2021/07/29 12:34:06;;;;;;;3.30;3.00;;;26.50;99.90;;;;;;5019214;28;20215;-80
2021/07/29 12:36:48;;;;;;;3.60;3.00;;;25.60;99.90;;;;;;5005953;28;20226;-81
2021/07/29 12:39:18;;;;;;;3.93;3.00;;;26.50;99.90;;;;;;5006385;28;20239;-80
2021/07/29 12:41:49;;;;;;;4.87;3.40;;;27.00;99.90;;;;;;5021207;28;20195;-80
2021/07/29 12:44:16;;;;;;;3.43;2.87;;;26.60;99.90;;;;;;5005033;28;20267;-82
2021/07/29 12:46:43;;;;;;;3.67;3.00;;;27.50;99.90;;;;;;5005508;28;20178;-81
2021/07/29 12:49:10;;;;;;;5.40;3.40;;;28.40;99.90;;;;;;5017832;28;20183;-81
2021/07/29 12:51:36;;;;;;;3.33;2.93;;;29.40;99.90;;;;;;5017394;28;20199;-81
2021/07/29 12:54:03;;;;;;;11.30;3.50;;;29.40;99.90;;;;;;5002211;28;20697;-80
2021/07/29 12:56:29;;;;;;;5.90;3.43;;;29.30;99.90;;;;;;5017453;28;20173;-81